Time;durP1;ratioP1;P1;durP2;ratioP2;P2;SDS_P1;SDS_P2;PMS_P1;PMS_P2;Temp;Humidity;BMP_temperature;BMP_pressure;BME280_temperature;BME280_humidity;BME280_pressure;Samples;Min_cycle;Max_cycle;Signal;HPM_P1;HPM_P2
2023/04/05 07:23:13;;;;;;;14.15;11.38;;;;;;;-145.79;48.55;79276.91;5279427;28;20394;-75
2023/04/05 07:25:44;;;;;;;14.68;11.20;;;;;;;-145.79;48.54;79272.66;5272005;28;20037;-75
2023/04/05 07:28:15;;;;;;;16.27;11.88;;;;;;;-145.79;48.16;79274.78;5259641;28;20025;-75
2023/04/05 07:30:47;;;;;;;14.63;11.52;;;;;;;-145.79;48.22;79268.44;5258806;28;20033;-72
2023/04/05 07:33:18;;;;;;;19.30;12.13;;;;;;;-145.79;49.74;79232.38;5258387;28;20029;-73
2023/04/05 07:35:55;;;;;;;13.57;10.65;;;;;;;-145.79;47.91;79242.97;5251966;28;20100;-74
2023/04/05 07:38:28;;;;;;;15.73;10.88;;;;;;;-145.79;48.38;79236.63;5242818;28;20028;-74
2023/04/05 07:40:59;;;;;;;18.98;11.82;;;;;;;-145.79;47.44;79209.06;5259301;28;20372;-74
2023/04/05 07:43:31;;;;;;;16.27;10.48;;;;;;;-145.79;47.34;79196.34;5259116;28;20029;-74
2023/04/05 07:46:03;;;;;;;14.90;10.23;;;;;;;-145.79;46.68;79202.69;5256958;28;20025;-74
2023/04/05 07:48:34;;;;;;;14.88;10.15;;;;;;;-145.79;46.54;79189.97;5258927;28;20392;-76
2023/04/05 07:51:07;;;;;;;12.68;9.25;;;;;;;-145.79;45.55;79183.59;5258295;28;20067;-76
2023/04/05 07:53:39;;;;;;;12.05;10.40;;;;;;;-145.79;45.78;79164.53;5245921;28;20110;-76
2023/04/05 07:56:13;;;;;;;13.88;9.27;;;;;;;-145.79;45.18;79153.91;5246312;28;20105;-77
2023/04/05 07:58:44;;;;;;;11.50;9.02;;;;;;;-145.79;45.05;79153.91;5258329;28;20021;-75
2023/04/05 08:01:15;;;;;;;10.68;8.95;;;;;;;-145.79;44.77;79147.56;5248832;28;20036;-76
2023/04/05 08:03:46;;;;;;;9.13;7.95;;;;;;;-145.79;44.04;79156.03;5238063;28;20057;-76
2023/04/05 08:06:18;;;;;;;11.95;8.85;;;;;;;-145.79;44.45;79145.44;5237432;28;20032;-73
2023/04/05 08:08:49;;;;;;;11.48;8.88;;;;;;;-145.79;44.98;79124.22;5239384;28;20036;-77
2023/04/05 08:11:21;;;;;;;13.73;9.82;;;;;;;-145.79;44.42;79107.25;5256166;28;20059;-78
2023/04/05 08:13:53;;;;;;;14.85;12.27;;;;;;;-145.79;44.45;79107.25;5257656;28;20455;-76
2023/04/05 08:16:24;;;;;;;57.97;47.22;;;;;;;-145.79;44.29;79103.03;5258745;28;20035;-77
2023/04/05 08:18:56;;;;;;;15.30;9.98;;;;;;;-145.79;43.91;79098.78;5253590;28;20053;-78
2023/04/05 08:21:27;;;;;;;13.70;9.50;;;;;;;-145.79;43.59;79094.53;5236977;28;20144;-78
2023/04/05 08:23:59;;;;;;;14.23;9.27;;;;;;;-145.79;44.37;79083.94;5240279;28;20037;-80
2023/04/05 08:26:30;;;;;;;12.32;9.45;;;;;;;-145.79;44.03;79081.81;5247828;28;20418;-78
2023/04/05 08:29:02;;;;;;;12.25;9.52;;;;;;;-145.79;43.18;79071.22;5247320;28;20524;-77
2023/04/05 08:31:33;;;;;;;12.90;9.30;;;;;;;-145.79;42.75;79064.84;5250865;28;20507;-78
2023/04/05 08:34:07;;;;;;;12.27;8.82;;;;;;;-145.79;42.60;79056.38;5263679;28;20025;-78
2023/04/05 08:36:38;;;;;;;14.10;8.70;;;;;;;-145.79;42.15;79041.53;5255148;28;20022;-78
2023/04/05 08:39:10;;;;;;;9.55;7.53;;;;;;;-145.79;41.58;79043.66;5229234;28;20024;-78
2023/04/05 08:41:53;;;;;;;10.15;6.95;;;;;;;-145.79;40.64;79026.69;5235575;28;20017;-78
2023/04/05 08:44:25;;;;;;;17.00;12.70;;;;;;;-145.79;40.42;79033.06;5234890;28;20389;-78
2023/04/05 08:47:00;;;;;;;10.00;7.50;;;;;;;-145.79;40.75;79026.69;5244081;28;20021;-78
2023/04/05 08:49:32;;;;;;;8.50;7.57;;;;;;;-145.79;40.59;79018.19;5242623;28;20030;-78
2023/04/05 08:52:04;;;;;;;10.85;6.88;;;;;;;-145.79;40.20;79013.97;5234200;28;20033;-78
2023/04/05 08:54:36;;;;;;;8.07;6.20;;;;;;;-145.79;39.20;79009.72;5222697;28;20036;-77
2023/04/05 08:57:08;;;;;;;9.77;6.82;;;;;;;-145.79;41.67;78975.78;5223577;28;20038;-77
2023/04/05 08:59:40;;;;;;;9.52;7.47;;;;;;;-145.79;38.59;78988.53;5233672;28;20032;-81
2023/04/05 09:02:17;;;;;;;10.55;6.72;;;;;;;-145.79;38.38;78977.91;5234752;28;20030;-81
2023/04/05 09:04:50;;;;;;;8.95;6.47;;;;;;;-145.79;38.11;78971.56;5244427;28;20047;-82
2023/04/05 09:07:24;;;;;;;11.80;6.85;;;;;;;-145.79;38.61;78967.31;5243207;28;20052;-79
2023/04/05 09:09:58;;;;;;;9.48;6.70;;;;;;;-145.79;38.44;78950.34;5243382;28;20037;-79
2023/04/05 09:12:29;;;;;;;12.88;7.47;;;;;;;-145.79;39.24;78922.78;5240027;28;20096;-79
2023/04/05 09:15:01;;;;;;;9.57;7.38;;;;;;;-145.79;40.14;78903.69;5227091;28;20160;-79
2023/04/05 09:17:33;;;;;;;11.77;7.88;;;;;;;-145.79;37.89;78916.41;5237303;28;20061;-79
2023/04/05 09:20:05;;;;;;;9.38;7.05;;;;;;;-145.79;38.08;78918.53;5223474;28;20107;-79
2023/04/05 09:22:44;;;;;;;9.65;7.82;;;;;;;-145.79;38.92;78899.47;5241950;28;20155;-80
2023/04/05 09:25:31;;;;;;;12.90;7.18;;;;;;;-145.79;38.75;78899.47;5243335;28;20037;-78
2023/04/05 09:28:02;;;;;;;10.77;7.50;;;;;;;-145.79;39.02;78886.75;5240700;28;20022;-77
2023/04/05 09:30:36;;;;;;;7.35;5.65;;;;;;;-145.79;36.88;78888.84;5222869;28;20490;-79
2023/04/05 09:33:09;;;;;;;13.93;11.68;;;;;;;-145.79;36.57;78869.78;5242349;28;20029;-79
2023/04/05 09:35:41;;;;;;;13.77;9.38;;;;;;;-145.79;36.59;78865.53;5237952;28;20029;-79
2023/04/05 09:38:12;;;;;;;18.55;16.35;;;;;;;-145.79;36.44;78865.53;5242308;28;20037;-79
2023/04/05 09:40:48;;;;;;;12.82;7.47;;;;;;;-145.79;36.43;78863.41;5243745;28;20428;-79
2023/04/05 09:43:34;;;;;;;;;;;;;;;-145.79;36.71;78835.84;5244316;28;20436;-79
2023/04/05 09:46:06;;;;;;;8.95;7.13;;;;;;;-145.79;36.57;78861.28;5240959;28;19995;-79
2023/04/05 09:48:48;;;;;;;9.07;6.75;;;;;;;-145.79;36.82;78852.81;5243813;28;20461;-79
2023/04/05 09:51:19;;;;;;;9.13;7.53;;;;;;;-145.79;38.42;78818.88;5239012;28;20052;-78
2023/04/05 09:54:04;;;;;;;8.05;6.80;;;;;;;-145.79;36.33;78827.38;5225294;28;20026;-76
2023/04/05 09:56:37;;;;;;;9.50;6.90;;;;;;;-145.79;37.00;78814.63;5222839;28;20026;-78
2023/04/05 09:59:10;;;;;;;12.90;7.75;;;;;;;-145.79;36.95;78797.69;5222212;28;20096;-74
2023/04/05 10:01:43;;;;;;;9.15;7.05;;;;;;;-145.79;36.75;78797.69;5222411;28;20096;-74
2023/04/05 10:04:14;;;;;;;11.70;7.40;;;;;;;-145.79;36.34;78789.19;5242295;28;20028;-78
2023/04/05 10:06:45;;;;;;;11.40;8.10;;;;;;;-145.79;35.98;78793.44;5242371;28;20104;-79
2023/04/05 10:09:18;;;;;;;22.95;17.02;;;;;;;-145.79;36.21;78789.19;5234599;28;20541;-79
2023/04/05 10:11:50;;;;;;;17.45;11.00;;;;;;;-145.79;36.01;78776.47;5221871;28;20107;-79
2023/04/05 10:14:22;;;;;;;11.13;7.50;;;;;;;-145.79;34.86;78791.31;5222854;28;20022;-77
2023/04/05 10:17:19;;;;;;;8.77;7.00;;;;;;;-145.79;35.47;78776.47;5222306;28;20026;-79
2023/04/05 10:20:12;;;;;;;9.57;8.60;;;;;;;-145.79;36.10;78761.63;5221759;28;20481;-80
2023/04/05 10:23:06;;;;;;;8.75;7.32;;;;;;;-145.79;35.36;78780.72;5224562;28;20054;-78
2023/04/05 10:25:50;;;;;;;11.73;9.20;;;;;;;-145.79;35.75;78755.28;5243945;28;20388;-81
2023/04/05 10:28:28;;;;;;;12.07;7.90;;;;;;;-145.79;35.31;78753.16;5227051;28;20080;-81
2023/04/05 10:31:16;;;;;;;9.85;7.80;;;;;;;-145.79;35.16;78731.94;5223706;28;20096;-81
2023/04/05 10:33:59;;;;;;;9.63;7.85;;;;;;;-145.79;34.70;78744.66;5222055;28;20056;-80
2023/04/05 10:36:41;;;;;;;9.82;8.25;;;;;;;-145.79;35.09;78725.59;5224692;28;20033;-80
2023/04/05 10:39:18;;;;;;;9.82;7.57;;;;;;;-145.79;34.78;78727.72;5221650;28;20221;-80
2023/04/05 10:42:06;;;;;;;11.60;8.43;;;;;;;-145.79;33.75;78734.06;5220814;28;20026;-80
2023/04/05 10:44:38;;;;;;;12.38;8.38;;;;;;;-145.79;34.00;78734.06;5241642;28;20116;-80
2023/04/05 10:47:13;;;;;;;10.50;8.15;;;;;;;-145.79;33.97;78712.88;5242037;28;20592;-81
2023/04/05 10:49:53;;;;;;;10.35;8.15;;;;;;;-145.79;34.31;78725.59;5242260;28;20389;-81
2023/04/05 10:52:26;;;;;;;13.05;8.23;;;;;;;-145.79;34.36;78721.34;5242176;28;20021;-80
2023/04/05 10:54:58;;;;;;;11.48;8.77;;;;;;;-145.79;35.55;78672.56;5241717;28;20075;-81
2023/04/05 10:57:31;;;;;;;10.65;8.60;;;;;;;-145.79;35.12;78674.69;5242139;28;20097;-80
2023/04/05 11:00:04;;;;;;;10.10;8.40;;;;;;;-145.79;34.88;78647.13;5235274;28;20030;-81
2023/04/05 11:02:36;;;;;;;10.32;8.32;;;;;;;-145.79;35.16;78649.25;5221490;28;20369;-81
2023/04/05 11:05:28;;;;;;;12.43;9.00;;;;;;;-145.79;35.06;78634.41;5224979;28;20108;-81
2023/04/05 11:08:04;;;;;;;14.05;10.77;;;;;;;-145.79;35.34;78611.09;5222917;28;20026;-77
2023/04/05 11:10:37;;;;;;;15.45;12.13;;;;;;;-145.79;36.75;78594.13;5221931;28;20049;-74
2023/04/05 11:13:09;;;;;;;12.40;9.25;;;;;;;-145.79;37.92;78566.56;5240225;28;20033;-75
2023/04/05 11:15:41;;;;;;;10.93;8.27;;;;;;;-145.79;35.20;78583.53;5240329;28;20029;-74
2023/04/05 11:18:15;;;;;;;8.95;7.63;;;;;;;-145.79;37.12;78600.50;5240844;28;20025;-75
2023/04/05 11:20:51;;;;;;;10.60;7.82;;;;;;;-145.79;41.29;78562.31;5259139;28;20108;-76
2023/04/05 11:23:24;;;;;;;9.90;8.45;;;;;;;-145.79;38.10;78585.66;5253042;28;20030;-74
2023/04/05 11:26:03;;;;;;;17.13;13.20;;;;;;;-145.79;34.95;78585.66;5235729;28;20036;-77
2023/04/05 11:28:41;;;;;;;13.93;9.02;;;;;;;-145.79;34.50;78577.16;5229867;28;20113;-74
2023/04/05 11:31:17;;;;;;;9.57;7.82;;;;;;;-145.79;39.68;78534.75;5240641;28;20035;-76
2023/04/05 11:33:48;;;;;;;8.90;7.78;;;;;;;-145.79;34.61;78551.72;5227989;28;20021;-77
2023/04/05 11:36:37;;;;;;;9.05;7.40;;;;;;;-145.79;41.31;78526.28;5240764;28;20428;-76
2023/04/05 11:39:18;;;;;;;11.18;8.93;;;;;;;-145.79;37.76;78524.16;5236575;28;20080;-76
2023/04/05 11:42:03;;;;;;;11.80;9.82;;;;;;;-145.79;35.19;78517.81;5240903;28;20044;-76
2023/04/05 11:44:47;;;;;;;11.05;9.07;;;;;;;-145.79;33.67;78505.06;5240616;28;20026;-75
2023/04/05 11:47:22;;;;;;;11.38;8.60;;;;;;;-145.79;32.71;78496.59;5241555;28;20435;-75
2023/04/05 11:49:54;;;;;;;8.10;6.80;;;;;;;-145.79;32.62;78486.00;5241092;28;20029;-75
2023/04/05 11:52:25;;;;;;;10.23;8.20;;;;;;;-145.79;32.47;78456.31;5221062;28;20533;-75
2023/04/05 11:54:56;;;;;;;9.90;8.15;;;;;;;-145.79;31.42;78471.16;5221505;28;20468;-75
2023/04/05 11:57:28;;;;;;;13.18;8.32;;;;;;;-145.79;33.41;78449.94;5219674;28;20062;-76
2023/04/05 11:59:59;;;;;;;11.32;8.00;;;;;;;-145.79;32.14;78443.59;5236075;28;20445;-75
2023/04/05 12:02:33;;;;;;;17.50;9.18;;;;;;;-145.79;33.41;78433.00;5224375;28;20117;-73
2023/04/05 12:05:05;;;;;;;8.40;7.60;;;;;;;-145.79;32.67;78418.16;5219790;28;20022;-74
2023/04/05 12:07:36;;;;;;;10.15;8.60;;;;;;;-145.79;31.70;78399.06;5224942;28;20091;-76
2023/04/05 12:10:14;;;;;;;10.57;8.68;;;;;;;-145.79;31.83;78401.19;5244707;28;20021;-73
2023/04/05 12:12:47;;;;;;;9.55;8.40;;;;;;;-145.79;31.67;78411.78;5260734;28;20037;-74
2023/04/05 12:15:19;;;;;;;11.85;10.25;;;;;;;-145.79;32.62;78379.97;5264493;28;20873;-75
2023/04/05 12:17:53;;;;;;;8.85;7.25;;;;;;;-145.79;30.47;78373.63;5265012;28;20024;-76
2023/04/05 12:20:25;;;;;;;9.77;7.40;;;;;;;-145.79;30.57;78339.69;5264442;28;20052;-77
2023/04/05 12:22:56;;;;;;;10.38;8.13;;;;;;;-145.79;30.93;78337.59;5262747;28;20057;-75
2023/04/05 12:25:28;;;;;;;8.50;7.47;;;;;;;-145.79;29.61;78331.22;5237779;28;20128;-78
2023/04/05 12:28:07;;;;;;;10.05;7.65;;;;;;;-145.79;30.59;78316.38;5244583;28;20056;-75
2023/04/05 12:30:49;;;;;;;12.00;10.15;;;;;;;-145.79;30.75;78312.13;5244361;28;20060;-74
2023/04/05 12:33:31;;;;;;;19.20;15.20;;;;;;;-145.79;33.80;78295.19;5243582;28;20052;-74
2023/04/05 12:36:04;;;;;;;21.50;14.77;;;;;;;-145.79;31.96;78322.75;5244287;28;20103;-74
2023/04/05 12:38:39;;;;;;;17.48;12.93;;;;;;;-145.79;32.48;78297.31;5242250;28;20018;-74
2023/04/05 12:41:10;;;;;;;18.13;13.48;;;;;;;-145.79;32.47;78295.19;5242125;28;20030;-74
2023/04/05 12:43:42;;;;;;;14.52;12.43;;;;;;;-145.79;31.73;78278.22;5223147;28;20029;-77
2023/04/05 12:46:17;;;;;;;14.93;12.45;;;;;;;-145.79;32.56;78244.28;5237369;28;20077;-79
2023/04/05 12:48:52;;;;;;;15.88;13.10;;;;;;;-145.79;31.94;78242.19;5245125;28;20136;-74
2023/04/05 12:51:23;;;;;;;14.10;12.15;;;;;;;-145.79;32.24;78218.84;5249223;28;20569;-77
2023/04/05 12:53:55;;;;;;;14.30;12.63;;;;;;;-145.79;32.14;78187.06;5243700;28;20037;-76
2023/04/05 12:56:29;;;;;;;12.80;10.35;;;;;;;-145.79;33.56;78187.06;5255763;28;20021;-77
2023/04/05 12:59:04;;;;;;;13.15;11.23;;;;;;;-145.79;32.60;78182.81;5244933;28;20091;-77
2023/04/05 13:01:35;;;;;;;11.18;9.80;;;;;;;-145.79;32.35;78178.56;5247385;28;20025;-76
2023/04/05 13:04:06;;;;;;;14.63;10.98;;;;;;;-145.79;31.66;78176.47;5246981;28;20467;-76
2023/04/05 13:06:38;;;;;;;11.73;10.50;;;;;;;-145.79;32.41;78153.13;5257503;28;20076;-77
2023/04/05 13:09:09;;;;;;;14.02;11.82;;;;;;;-145.79;31.27;78163.72;5237114;28;20040;-77
2023/04/05 13:11:40;;;;;;;14.20;12.25;;;;;;;-145.79;30.38;78174.34;5239952;28;20069;-77
2023/04/05 13:14:12;;;;;;;12.82;10.85;;;;;;;-145.79;31.04;78199.78;5237658;28;20084;-75
2023/04/05 13:16:43;;;;;;;15.75;11.40;;;;;;;-145.79;29.64;78204.00;5246657;28;20017;-74
2023/04/05 13:19:14;;;;;;;17.60;12.02;;;;;;;-145.79;31.78;78184.94;5255553;28;20379;-73
2023/04/05 13:21:46;;;;;;;14.00;10.80;;;;;;;-145.79;31.64;78170.09;5248545;28;20045;-73
2023/04/05 13:24:17;;;;;;;12.15;10.48;;;;;;;-145.79;31.72;78144.66;5259507;28;20017;-74
2023/04/05 13:26:48;;;;;;;16.50;11.57;;;;;;;-145.79;28.94;78136.19;5245129;28;20111;-75
2023/04/05 13:29:22;;;;;;;34.80;28.20;;;;;;;-145.79;28.85;78136.19;5237713;28;20025;-75
2023/04/05 13:31:56;;;;;;;12.68;10.63;;;;;;;-145.79;29.92;78102.25;5247227;28;20032;-77
2023/04/05 13:34:28;;;;;;;12.63;9.07;;;;;;;-145.79;27.89;78110.72;5235369;28;20026;-75
2023/04/05 13:36:59;;;;;;;12.38;10.18;;;;;;;-145.79;28.97;78085.28;5232110;28;20523;-76
2023/04/05 13:39:31;;;;;;;13.63;9.18;;;;;;;-145.79;28.13;78081.06;5247481;28;20071;-76
2023/04/05 13:42:02;;;;;;;12.63;9.88;;;;;;;-145.79;28.22;78098.00;5251026;28;20029;-76
2023/04/05 13:44:34;;;;;;;15.90;13.25;;;;;;;-145.79;29.34;78091.66;5257688;28;20362;-74
2023/04/05 13:47:05;;;;;;;16.05;12.30;;;;;;;-145.79;29.52;78085.28;5248618;28;20024;-74
2023/04/05 13:49:36;;;;;;;20.15;12.52;;;;;;;-145.79;29.33;78061.97;5246028;28;20026;-73
2023/04/05 13:52:08;;;;;;;14.05;11.15;;;;;;;-145.79;29.82;78057.72;5234970;28;20037;-73
2023/04/05 13:54:39;;;;;;;20.73;12.77;;;;;;;-145.79;28.46;78068.34;5247727;28;20103;-73
2023/04/05 13:57:10;;;;;;;16.75;12.07;;;;;;;-145.79;28.72;78008.97;5245044;28;20576;-73
2023/04/05 13:59:42;;;;;;;12.75;11.45;;;;;;;-145.79;29.08;77975.06;5251429;28;20017;-73
2023/04/05 14:02:14;;;;;;;12.45;10.85;;;;;;;-145.79;28.18;77953.84;5239889;28;20486;-73
2023/04/05 14:04:45;;;;;;;11.80;10.60;;;;;;;-145.79;28.31;77951.72;5248423;28;20017;-71
2023/04/05 14:07:16;;;;;;;13.77;10.60;;;;;;;-145.79;28.29;77943.25;5243964;28;20029;-74
2023/04/05 14:09:48;;;;;;;12.65;10.57;;;;;;;-145.79;28.11;77928.41;5242261;28;20026;-74
2023/04/05 14:12:19;;;;;;;17.73;13.75;;;;;;;-145.79;29.63;77928.41;5254102;28;20013;-74
2023/04/05 14:14:53;;;;;;;13.18;10.60;;;;;;;-145.79;28.36;77930.53;5258706;28;20021;-73
2023/04/05 14:17:25;;;;;;;15.52;12.45;;;;;;;-145.79;28.93;77941.13;5220504;28;20025;-73
2023/04/05 14:19:56;;;;;;;13.20;10.07;;;;;;;-145.79;30.02;77934.78;5219896;28;20495;-76
2023/04/05 14:22:27;;;;;;;12.23;10.70;;;;;;;-145.79;28.34;77962.34;5220184;28;20041;-72
2023/04/05 14:25:03;;;;;;;12.82;11.35;;;;;;;-145.79;28.68;77941.13;5220533;28;20041;-75
2023/04/05 14:27:40;;;;;;;12.32;10.50;;;;;;;-145.79;28.31;77968.69;5220846;28;20025;-74
2023/04/05 14:30:11;;;;;;;12.73;11.45;;;;;;;-145.79;28.55;77962.34;5221670;28;20438;-71
2023/04/05 14:32:44;;;;;;;11.88;10.32;;;;;;;-145.79;27.66;77966.56;5230577;28;20158;-73
2023/04/05 14:35:15;;;;;;;12.60;10.77;;;;;;;-145.79;27.97;77981.41;5261646;28;20530;-73
2023/04/05 14:37:46;;;;;;;13.13;10.20;;;;;;;-145.79;28.79;77987.78;5262656;28;20029;-74
2023/04/05 14:40:17;;;;;;;12.52;9.35;;;;;;;-145.79;27.94;77958.09;5257379;28;20105;-72
2023/04/05 14:42:49;;;;;;;11.98;10.23;;;;;;;-145.79;28.34;77928.41;5221522;28;20113;-74
2023/04/05 14:45:22;;;;;;;13.73;11.18;;;;;;;-145.79;27.55;77953.84;5221559;28;20022;-77
2023/04/05 14:47:54;;;;;;;12.77;10.10;;;;;;;-145.79;28.08;77907.22;5220480;28;20030;-75
2023/04/05 14:50:25;;;;;;;12.00;10.50;;;;;;;-145.79;27.69;77915.69;5221055;28;20026;-72
2023/04/05 14:53:00;;;;;;;11.80;10.40;;;;;;;-145.79;28.22;77941.13;5220793;28;20030;-73
2023/04/05 14:55:31;;;;;;;13.23;11.13;;;;;;;-145.79;28.62;77958.09;5221383;28;20457;-71
2023/04/05 14:58:03;;;;;;;9.95;8.88;;;;;;;-145.79;28.45;77992.00;5221665;28;20038;-73
2023/04/05 15:00:34;;;;;;;14.25;10.98;;;;;;;-145.79;28.59;77951.72;5220007;28;20474;-74
2023/04/05 15:03:05;;;;;;;103.35;88.47;;;;;;;-145.79;29.42;77941.13;5220582;28;20030;-72
2023/04/05 15:05:37;;;;;;;14.48;12.98;;;;;;;-145.79;28.50;77979.28;5234958;28;20034;-72
2023/04/05 15:08:08;;;;;;;9.57;8.68;;;;;;;-145.79;28.26;77951.72;5235804;28;20113;-71
2023/04/05 15:10:41;;;;;;;11.68;9.55;;;;;;;-145.79;28.28;77936.91;5233731;28;20120;-72
2023/04/05 15:13:13;;;;;;;9.73;8.68;;;;;;;-145.79;28.31;77953.84;5240551;28;20028;-73
2023/04/05 15:15:44;;;;;;;9.07;7.93;;;;;;;-145.79;28.36;77989.91;5220423;28;20022;-74
2023/04/05 15:18:15;;;;;;;11.63;9.30;;;;;;;-145.79;28.32;78042.91;5226520;28;20075;-73
2023/04/05 15:20:47;;;;;;;9.88;8.30;;;;;;;-145.79;28.27;78015.34;5226548;28;20050;-72
2023/04/05 15:23:18;;;;;;;10.48;8.05;;;;;;;-145.79;27.55;78011.09;5225937;28;20037;-74
2023/04/05 15:25:49;;;;;;;28.15;25.10;;;;;;;-145.79;28.37;78002.63;5221509;28;20032;-72
2023/04/05 15:28:21;;;;;;;11.15;8.95;;;;;;;-145.79;29.15;77987.78;5239332;28;20590;-72
2023/04/05 15:30:52;;;;;;;8.63;7.03;;;;;;;-145.79;28.92;77975.06;5240832;28;20495;-72
2023/04/05 15:33:23;;;;;;;9.18;7.10;;;;;;;-145.79;28.25;77960.22;5241088;28;20034;-74
2023/04/05 15:35:55;;;;;;;8.25;6.93;;;;;;;-145.79;28.00;77964.47;5233497;28;20034;-72
2023/04/05 15:38:26;;;;;;;8.88;7.05;;;;;;;-145.79;27.85;77943.25;5236477;28;20535;-71
2023/04/05 15:40:57;;;;;;;17.48;13.82;;;;;;;-145.79;28.51;77932.66;5239447;28;20061;-71
2023/04/05 15:43:30;;;;;;;11.18;7.50;;;;;;;-145.79;27.92;77941.13;5241566;28;20036;-72
2023/04/05 15:46:03;;;;;;;8.23;7.32;;;;;;;-145.79;27.48;77928.41;5245232;28;20040;-71
2023/04/05 15:48:34;;;;;;;8.00;6.97;;;;;;;-145.79;28.11;77928.41;5239840;28;20038;-71
2023/04/05 15:51:06;;;;;;;10.77;7.57;;;;;;;-145.79;27.75;77928.41;5223628;28;20347;-77
2023/04/05 15:53:37;;;;;;;9.82;7.88;;;;;;;-145.79;28.11;77932.66;5232121;28;20045;-74
2023/04/05 15:56:09;;;;;;;10.23;9.20;;;;;;;-145.79;27.36;77936.91;5231791;28;20049;-69
2023/04/05 15:58:40;;;;;;;14.85;10.40;;;;;;;-145.79;28.30;77936.91;5244658;28;20017;-74
2023/04/05 16:01:15;;;;;;;8.57;7.68;;;;;;;-145.79;28.34;77970.81;5226145;28;20036;-74
2023/04/05 16:03:46;;;;;;;9.13;7.57;;;;;;;-145.79;28.28;77968.69;5227959;28;20029;-74
2023/04/05 16:06:17;;;;;;;12.20;7.30;;;;;;;-145.79;28.55;77981.41;5234574;28;20030;-74
2023/04/05 16:08:49;;;;;;;9.32;7.43;;;;;;;-145.79;28.63;77972.94;5244810;28;20029;-74
2023/04/05 16:11:20;;;;;;;8.30;7.47;;;;;;;-145.79;29.42;77987.78;5241977;28;20034;-75
2023/04/05 16:13:52;;;;;;;8.73;7.72;;;;;;;-145.79;28.37;77966.56;5233870;28;20025;-75
2023/04/05 16:16:24;;;;;;;10.45;8.45;;;;;;;-145.79;28.22;77953.84;5244839;28;20026;-76
2023/04/05 16:18:55;;;;;;;9.15;7.45;;;;;;;-145.79;28.19;77949.63;5243736;28;20116;-75
2023/04/05 16:21:26;;;;;;;14.68;13.10;;;;;;;-145.79;28.90;77936.91;5244614;28;20045;-75
2023/04/05 16:24:00;;;;;;;15.85;14.32;;;;;;;-145.79;29.02;77919.94;5229207;28;20029;-75
2023/04/05 16:26:31;;;;;;;18.17;16.27;;;;;;;-145.79;28.45;77917.81;5229035;28;20034;-75
2023/04/05 16:29:02;;;;;;;18.60;16.65;;;;;;;-145.79;28.67;77911.47;5238953;28;20410;-76
2023/04/05 16:31:35;;;;;;;18.08;16.17;;;;;;;-145.79;29.10;77898.75;5242826;28;20052;-75
2023/04/05 16:34:06;;;;;;;23.63;17.88;;;;;;;-145.79;29.78;77907.22;5264836;28;20059;-75
2023/04/05 16:36:38;;;;;;;17.40;15.60;;;;;;;-145.79;28.66;77947.50;5227769;28;20025;-74
2023/04/05 16:39:09;;;;;;;17.30;15.18;;;;;;;-145.79;28.65;77941.13;5223467;28;20473;-74
2023/04/05 16:41:41;;;;;;;17.98;16.08;;;;;;;-145.79;28.84;77975.06;5232375;28;20095;-76
2023/04/05 16:44:12;;;;;;;17.23;15.43;;;;;;;-145.79;28.78;77960.22;5233950;28;20033;-74
2023/04/05 16:46:44;;;;;;;17.55;15.07;;;;;;;-145.79;29.76;77962.34;5222481;28;20047;-75
2023/04/05 16:49:16;;;;;;;19.90;16.88;;;;;;;-145.79;29.24;77975.06;5223675;28;20428;-75
2023/04/05 16:51:47;;;;;;;17.35;15.40;;;;;;;-145.79;29.19;77983.53;5232783;28;20029;-75
